sensor_id;sensor_type;location;lat;lon;timestamp;P1;durP1;ratioP1;P2;durP2;ratioP2
12484;SDS011;6307;46.804;11.580;2022-07-03T00:01:41;5.43;;;4.23;;
12484;SDS011;6307;46.804;11.580;2022-07-03T00:04:07;5.60;;;3.60;;
12484;SDS011;6307;46.804;11.580;2022-07-03T00:06:33;6.50;;;4.03;;
12484;SDS011;6307;46.804;11.580;2022-07-03T00:09:00;9.40;;;4.40;;
12484;SDS011;6307;46.804;11.580;2022-07-03T00:11:30;5.33;;;3.83;;
12484;SDS011;6307;46.804;11.580;2022-07-03T00:13:57;7.13;;;4.33;;
12484;SDS011;6307;46.804;11.580;2022-07-03T00:16:25;5.50;;;3.70;;
12484;SDS011;6307;46.804;11.580;2022-07-03T00:18:51;4.73;;;3.50;;
12484;SDS011;6307;46.804;11.580;2022-07-03T00:21:20;5.27;;;3.47;;
12484;SDS011;6307;46.804;11.580;2022-07-03T00:23:58;5.23;;;3.40;;
12484;SDS011;6307;46.804;11.580;2022-07-03T00:26:34;6.67;;;4.00;;
12484;SDS011;6307;46.804;11.580;2022-07-03T00:29:06;5.40;;;3.87;;
12484;SDS011;6307;46.804;11.580;2022-07-03T00:31:34;5.13;;;3.93;;
12484;SDS011;6307;46.804;11.580;2022-07-03T00:34:00;10.17;;;4.40;;
12484;SDS011;6307;46.804;11.580;2022-07-03T00:36:29;7.00;;;4.30;;
12484;SDS011;6307;46.804;11.580;2022-07-03T00:38:59;7.37;;;3.80;;
12484;SDS011;6307;46.804;11.580;2022-07-03T00:41:28;4.67;;;3.50;;
12484;SDS011;6307;46.804;11.580;2022-07-03T00:43:58;8.03;;;4.33;;
12484;SDS011;6307;46.804;11.580;2022-07-03T00:46:25;4.43;;;4.03;;
12484;SDS011;6307;46.804;11.580;2022-07-03T00:48:53;5.47;;;4.50;;
12484;SDS011;6307;46.804;11.580;2022-07-03T00:51:25;5.67;;;4.20;;
12484;SDS011;6307;46.804;11.580;2022-07-03T00:53:57;6.93;;;4.30;;
12484;SDS011;6307;46.804;11.580;2022-07-03T00:56:25;7.97;;;4.67;;
12484;SDS011;6307;46.804;11.580;2022-07-03T00:58:55;10.23;;;4.73;;
12484;SDS011;6307;46.804;11.580;2022-07-03T01:01:35;4.80;;;4.30;;
12484;SDS011;6307;46.804;11.580;2022-07-03T01:16:59;7.47;;;4.50;;
12484;SDS011;6307;46.804;11.580;2022-07-03T01:24:49;5.93;;;4.70;;
12484;SDS011;6307;46.804;11.580;2022-07-03T01:30:56;7.77;;;4.87;;
12484;SDS011;6307;46.804;11.580;2022-07-03T01:33:30;7.90;;;4.70;;
12484;SDS011;6307;46.804;11.580;2022-07-03T01:38:29;6.00;;;4.50;;
12484;SDS011;6307;46.804;11.580;2022-07-03T01:41:02;5.87;;;4.60;;
12484;SDS011;6307;46.804;11.580;2022-07-03T01:43:32;7.00;;;4.97;;
12484;SDS011;6307;46.804;11.580;2022-07-03T01:46:04;7.80;;;4.50;;
12484;SDS011;6307;46.804;11.580;2022-07-03T01:48:31;5.60;;;4.50;;
12484;SDS011;6307;46.804;11.580;2022-07-03T01:50:59;7.63;;;4.50;;
12484;SDS011;6307;46.804;11.580;2022-07-03T01:53:27;5.57;;;4.47;;
12484;SDS011;6307;46.804;11.580;2022-07-03T01:55:56;7.13;;;4.87;;
12484;SDS011;6307;46.804;11.580;2022-07-03T01:58:25;8.07;;;4.57;;
12484;SDS011;6307;46.804;11.580;2022-07-03T02:01:14;4.93;;;4.43;;
12484;SDS011;6307;46.804;11.580;2022-07-03T02:04:06;7.77;;;4.73;;
12484;SDS011;6307;46.804;11.580;2022-07-03T02:06:43;7.67;;;5.07;;
12484;SDS011;6307;46.804;11.580;2022-07-03T02:09:28;6.27;;;4.53;;
12484;SDS011;6307;46.804;11.580;2022-07-03T02:12:08;5.50;;;5.00;;
12484;SDS011;6307;46.804;11.580;2022-07-03T02:14:39;8.13;;;5.00;;
12484;SDS011;6307;46.804;11.580;2022-07-03T02:17:18;6.33;;;4.73;;
12484;SDS011;6307;46.804;11.580;2022-07-03T02:22:38;5.00;;;4.43;;
12484;SDS011;6307;46.804;11.580;2022-07-03T02:25:09;5.10;;;4.60;;
12484;SDS011;6307;46.804;11.580;2022-07-03T02:28:25;5.90;;;4.60;;
12484;SDS011;6307;46.804;11.580;2022-07-03T02:30:55;9.13;;;4.73;;
12484;SDS011;6307;46.804;11.580;2022-07-03T02:33:27;6.67;;;4.93;;
12484;SDS011;6307;46.804;11.580;2022-07-03T02:35:56;7.20;;;3.80;;
12484;SDS011;6307;46.804;11.580;2022-07-03T02:38:25;4.47;;;4.03;;
12484;SDS011;6307;46.804;11.580;2022-07-03T02:40:56;5.37;;;3.87;;
12484;SDS011;6307;46.804;11.580;2022-07-03T02:43:36;5.10;;;3.90;;
12484;SDS011;6307;46.804;11.580;2022-07-03T03:00:53;6.67;;;5.00;;
12484;SDS011;6307;46.804;11.580;2022-07-03T03:03:31;6.03;;;4.87;;
12484;SDS011;6307;46.804;11.580;2022-07-03T03:06:06;6.13;;;4.83;;
12484;SDS011;6307;46.804;11.580;2022-07-03T03:08:43;5.50;;;5.00;;
12484;SDS011;6307;46.804;11.580;2022-07-03T03:11:20;6.77;;;5.37;;
12484;SDS011;6307;46.804;11.580;2022-07-03T03:13:50;8.33;;;5.60;;
12484;SDS011;6307;46.804;11.580;2022-07-03T03:16:24;7.90;;;5.20;;
12484;SDS011;6307;46.804;11.580;2022-07-03T03:18:52;8.43;;;5.67;;
12484;SDS011;6307;46.804;11.580;2022-07-03T03:21:18;8.43;;;5.30;;
12484;SDS011;6307;46.804;11.580;2022-07-03T03:23:49;7.93;;;5.57;;
12484;SDS011;6307;46.804;11.580;2022-07-03T03:26:22;5.30;;;4.80;;
12484;SDS011;6307;46.804;11.580;2022-07-03T03:28:50;5.50;;;4.97;;
12484;SDS011;6307;46.804;11.580;2022-07-03T03:31:18;7.73;;;5.37;;
12484;SDS011;6307;46.804;11.580;2022-07-03T03:33:46;6.63;;;5.80;;
12484;SDS011;6307;46.804;11.580;2022-07-03T03:36:15;10.37;;;5.07;;
12484;SDS011;6307;46.804;11.580;2022-07-03T03:38:44;8.90;;;5.57;;
12484;SDS011;6307;46.804;11.580;2022-07-03T03:41:12;8.37;;;5.47;;
12484;SDS011;6307;46.804;11.580;2022-07-03T03:43:39;5.47;;;4.97;;
12484;SDS011;6307;46.804;11.580;2022-07-03T03:46:07;10.53;;;5.87;;
12484;SDS011;6307;46.804;11.580;2022-07-03T03:48:33;6.57;;;5.10;;
12484;SDS011;6307;46.804;11.580;2022-07-03T03:51:00;7.90;;;6.03;;
12484;SDS011;6307;46.804;11.580;2022-07-03T03:53:29;8.43;;;6.33;;
12484;SDS011;6307;46.804;11.580;2022-07-03T03:58:29;7.23;;;5.40;;
12484;SDS011;6307;46.804;11.580;2022-07-03T04:00:57;7.67;;;5.40;;
12484;SDS011;6307;46.804;11.580;2022-07-03T04:03:25;8.27;;;5.87;;
12484;SDS011;6307;46.804;11.580;2022-07-03T04:05:53;6.83;;;5.60;;
12484;SDS011;6307;46.804;11.580;2022-07-03T04:08:21;7.53;;;5.23;;
12484;SDS011;6307;46.804;11.580;2022-07-03T04:10:49;8.17;;;5.73;;
12484;SDS011;6307;46.804;11.580;2022-07-03T04:13:16;7.90;;;5.30;;
12484;SDS011;6307;46.804;11.580;2022-07-03T04:15:46;6.37;;;5.67;;
12484;SDS011;6307;46.804;11.580;2022-07-03T04:18:14;9.80;;;5.87;;
12484;SDS011;6307;46.804;11.580;2022-07-03T04:20:41;5.77;;;5.27;;
12484;SDS011;6307;46.804;11.580;2022-07-03T04:23:08;6.23;;;5.43;;
12484;SDS011;6307;46.804;11.580;2022-07-03T04:25:34;9.10;;;5.57;;
12484;SDS011;6307;46.804;11.580;2022-07-03T04:28:00;7.37;;;5.90;;
12484;SDS011;6307;46.804;11.580;2022-07-03T04:30:27;13.10;;;5.30;;
12484;SDS011;6307;46.804;11.580;2022-07-03T04:32:53;8.67;;;5.53;;
12484;SDS011;6307;46.804;11.580;2022-07-03T04:35:19;6.13;;;5.23;;
12484;SDS011;6307;46.804;11.580;2022-07-03T04:37:45;6.17;;;4.93;;
12484;SDS011;6307;46.804;11.580;2022-07-03T04:40:12;6.10;;;5.33;;
12484;SDS011;6307;46.804;11.580;2022-07-03T04:42:39;7.63;;;5.13;;
12484;SDS011;6307;46.804;11.580;2022-07-03T04:45:05;5.87;;;4.80;;
12484;SDS011;6307;46.804;11.580;2022-07-03T04:47:33;7.83;;;5.60;;
12484;SDS011;6307;46.804;11.580;2022-07-03T04:49:59;5.83;;;5.20;;
12484;SDS011;6307;46.804;11.580;2022-07-03T04:52:25;7.53;;;5.03;;
12484;SDS011;6307;46.804;11.580;2022-07-03T04:54:51;8.07;;;5.70;;
12484;SDS011;6307;46.804;11.580;2022-07-03T04:57:17;6.53;;;4.90;;
12484;SDS011;6307;46.804;11.580;2022-07-03T04:59:44;7.87;;;5.20;;
12484;SDS011;6307;46.804;11.580;2022-07-03T05:02:11;7.83;;;5.10;;
12484;SDS011;6307;46.804;11.580;2022-07-03T05:04:37;7.10;;;5.40;;
12484;SDS011;6307;46.804;11.580;2022-07-03T05:07:04;8.07;;;5.10;;
12484;SDS011;6307;46.804;11.580;2022-07-03T05:09:30;6.57;;;5.30;;
12484;SDS011;6307;46.804;11.580;2022-07-03T05:11:56;5.73;;;5.20;;
12484;SDS011;6307;46.804;11.580;2022-07-03T05:14:22;7.13;;;5.00;;
12484;SDS011;6307;46.804;11.580;2022-07-03T05:16:48;7.40;;;5.07;;
12484;SDS011;6307;46.804;11.580;2022-07-03T05:19:14;6.00;;;5.40;;
12484;SDS011;6307;46.804;11.580;2022-07-03T05:21:40;6.70;;;4.83;;
12484;SDS011;6307;46.804;11.580;2022-07-03T05:24:07;6.10;;;5.33;;
12484;SDS011;6307;46.804;11.580;2022-07-03T05:26:33;5.70;;;4.90;;
12484;SDS011;6307;46.804;11.580;2022-07-03T05:28:59;7.80;;;5.30;;
12484;SDS011;6307;46.804;11.580;2022-07-03T05:31:25;7.20;;;5.90;;
12484;SDS011;6307;46.804;11.580;2022-07-03T05:33:51;6.30;;;5.60;;
12484;SDS011;6307;46.804;11.580;2022-07-03T05:36:17;8.77;;;6.20;;
12484;SDS011;6307;46.804;11.580;2022-07-03T05:38:44;8.87;;;5.40;;
12484;SDS011;6307;46.804;11.580;2022-07-03T05:41:28;10.30;;;5.93;;
12484;SDS011;6307;46.804;11.580;2022-07-03T05:43:54;9.70;;;5.50;;
12484;SDS011;6307;46.804;11.580;2022-07-03T05:46:22;7.00;;;5.57;;
12484;SDS011;6307;46.804;11.580;2022-07-03T05:48:49;6.50;;;5.83;;
12484;SDS011;6307;46.804;11.580;2022-07-03T05:51:15;7.97;;;5.30;;
12484;SDS011;6307;46.804;11.580;2022-07-03T05:53:41;8.27;;;5.33;;
12484;SDS011;6307;46.804;11.580;2022-07-03T05:56:07;10.43;;;4.93;;
12484;SDS011;6307;46.804;11.580;2022-07-03T05:58:33;5.00;;;4.50;;
12484;SDS011;6307;46.804;11.580;2022-07-03T06:00:59;8.57;;;5.00;;
12484;SDS011;6307;46.804;11.580;2022-07-03T06:03:25;5.47;;;4.47;;
12484;SDS011;6307;46.804;11.580;2022-07-03T06:05:52;5.30;;;4.70;;
12484;SDS011;6307;46.804;11.580;2022-07-03T06:08:18;5.07;;;4.27;;
12484;SDS011;6307;46.804;11.580;2022-07-03T06:10:44;4.73;;;4.00;;
12484;SDS011;6307;46.804;11.580;2022-07-03T06:13:10;4.90;;;4.40;;
12484;SDS011;6307;46.804;11.580;2022-07-03T06:15:36;7.87;;;4.57;;
12484;SDS011;6307;46.804;11.580;2022-07-03T06:18:02;4.30;;;3.83;;
12484;SDS011;6307;46.804;11.580;2022-07-03T06:20:29;6.47;;;4.60;;
12484;SDS011;6307;46.804;11.580;2022-07-03T06:22:55;8.70;;;4.30;;
12484;SDS011;6307;46.804;11.580;2022-07-03T06:25:21;5.20;;;3.83;;
12484;SDS011;6307;46.804;11.580;2022-07-03T06:27:47;7.87;;;3.80;;
12484;SDS011;6307;46.804;11.580;2022-07-03T06:30:13;5.00;;;3.67;;
12484;SDS011;6307;46.804;11.580;2022-07-03T06:32:40;5.37;;;3.30;;
12484;SDS011;6307;46.804;11.580;2022-07-03T06:35:06;6.13;;;3.70;;
12484;SDS011;6307;46.804;11.580;2022-07-03T06:37:33;5.47;;;3.60;;
12484;SDS011;6307;46.804;11.580;2022-07-03T06:39:59;5.67;;;3.20;;
12484;SDS011;6307;46.804;11.580;2022-07-03T06:42:25;5.50;;;3.40;;
12484;SDS011;6307;46.804;11.580;2022-07-03T06:44:51;5.80;;;3.90;;
12484;SDS011;6307;46.804;11.580;2022-07-03T06:47:17;5.10;;;3.37;;
12484;SDS011;6307;46.804;11.580;2022-07-03T06:49:43;6.33;;;3.10;;
12484;SDS011;6307;46.804;11.580;2022-07-03T06:52:10;4.53;;;3.10;;
12484;SDS011;6307;46.804;11.580;2022-07-03T06:54:36;5.70;;;3.20;;
12484;SDS011;6307;46.804;11.580;2022-07-03T06:57:05;6.40;;;3.30;;
12484;SDS011;6307;46.804;11.580;2022-07-03T06:59:31;5.93;;;3.20;;
12484;SDS011;6307;46.804;11.580;2022-07-03T07:01:57;4.40;;;2.50;;
12484;SDS011;6307;46.804;11.580;2022-07-03T07:04:23;5.47;;;2.97;;
12484;SDS011;6307;46.804;11.580;2022-07-03T07:06:49;3.53;;;2.97;;
12484;SDS011;6307;46.804;11.580;2022-07-03T07:09:15;3.20;;;2.90;;
12484;SDS011;6307;46.804;11.580;2022-07-03T07:11:41;3.73;;;2.43;;
12484;SDS011;6307;46.804;11.580;2022-07-03T07:14:08;4.53;;;3.17;;
12484;SDS011;6307;46.804;11.580;2022-07-03T07:16:34;3.47;;;2.37;;
12484;SDS011;6307;46.804;11.580;2022-07-03T07:19:00;5.10;;;2.73;;
12484;SDS011;6307;46.804;11.580;2022-07-03T07:21:26;3.57;;;2.60;;
12484;SDS011;6307;46.804;11.580;2022-07-03T07:23:52;5.23;;;2.93;;
12484;SDS011;6307;46.804;11.580;2022-07-03T07:26:18;3.33;;;2.67;;
12484;SDS011;6307;46.804;11.580;2022-07-03T07:28:45;4.73;;;2.70;;
12484;SDS011;6307;46.804;11.580;2022-07-03T07:31:12;4.23;;;2.77;;
12484;SDS011;6307;46.804;11.580;2022-07-03T07:33:38;3.17;;;2.70;;
12484;SDS011;6307;46.804;11.580;2022-07-03T07:36:04;3.50;;;2.50;;
12484;SDS011;6307;46.804;11.580;2022-07-03T07:38:30;4.87;;;2.50;;
12484;SDS011;6307;46.804;11.580;2022-07-03T07:40:58;3.83;;;2.43;;
12484;SDS011;6307;46.804;11.580;2022-07-03T07:43:24;4.90;;;2.77;;
12484;SDS011;6307;46.804;11.580;2022-07-03T07:45:50;2.87;;;2.30;;
12484;SDS011;6307;46.804;11.580;2022-07-03T07:48:17;3.83;;;2.40;;
12484;SDS011;6307;46.804;11.580;2022-07-03T07:50:44;4.83;;;2.90;;
12484;SDS011;6307;46.804;11.580;2022-07-03T07:53:10;3.73;;;2.43;;
12484;SDS011;6307;46.804;11.580;2022-07-03T07:55:36;4.60;;;2.87;;
12484;SDS011;6307;46.804;11.580;2022-07-03T07:58:03;3.30;;;2.43;;
12484;SDS011;6307;46.804;11.580;2022-07-03T08:00:29;4.17;;;2.67;;
12484;SDS011;6307;46.804;11.580;2022-07-03T08:02:55;7.33;;;2.70;;
12484;SDS011;6307;46.804;11.580;2022-07-03T08:05:40;3.33;;;2.20;;
12484;SDS011;6307;46.804;11.580;2022-07-03T08:08:09;3.17;;;2.57;;
12484;SDS011;6307;46.804;11.580;2022-07-03T08:10:48;5.90;;;2.63;;
12484;SDS011;6307;46.804;11.580;2022-07-03T08:13:16;4.27;;;2.77;;
12484;SDS011;6307;46.804;11.580;2022-07-03T08:15:44;6.43;;;3.00;;
12484;SDS011;6307;46.804;11.580;2022-07-03T08:18:12;5.70;;;3.10;;
12484;SDS011;6307;46.804;11.580;2022-07-03T08:20:38;4.07;;;2.50;;
12484;SDS011;6307;46.804;11.580;2022-07-03T08:23:05;5.23;;;3.03;;
12484;SDS011;6307;46.804;11.580;2022-07-03T08:25:32;5.63;;;2.90;;
12484;SDS011;6307;46.804;11.580;2022-07-03T08:27:59;3.93;;;2.60;;
12484;SDS011;6307;46.804;11.580;2022-07-03T08:30:25;4.30;;;2.67;;
12484;SDS011;6307;46.804;11.580;2022-07-03T08:32:53;7.00;;;2.90;;
12484;SDS011;6307;46.804;11.580;2022-07-03T08:35:22;7.23;;;2.73;;
12484;SDS011;6307;46.804;11.580;2022-07-03T08:37:49;3.77;;;2.73;;
12484;SDS011;6307;46.804;11.580;2022-07-03T08:40:16;4.00;;;2.90;;
12484;SDS011;6307;46.804;11.580;2022-07-03T08:42:53;4.77;;;2.90;;
12484;SDS011;6307;46.804;11.580;2022-07-03T08:45:22;5.77;;;2.77;;
12484;SDS011;6307;46.804;11.580;2022-07-03T08:47:50;4.83;;;2.70;;
12484;SDS011;6307;46.804;11.580;2022-07-03T08:50:20;5.37;;;2.73;;
12484;SDS011;6307;46.804;11.580;2022-07-03T08:52:47;2.97;;;2.67;;
12484;SDS011;6307;46.804;11.580;2022-07-03T08:55:14;5.10;;;2.43;;
12484;SDS011;6307;46.804;11.580;2022-07-03T08:57:43;7.17;;;2.93;;
12484;SDS011;6307;46.804;11.580;2022-07-03T09:00:14;6.60;;;3.10;;
12484;SDS011;6307;46.804;11.580;2022-07-03T09:02:43;3.43;;;2.50;;
12484;SDS011;6307;46.804;11.580;2022-07-03T09:05:13;7.47;;;2.87;;
12484;SDS011;6307;46.804;11.580;2022-07-03T09:07:41;3.07;;;2.30;;
12484;SDS011;6307;46.804;11.580;2022-07-03T09:10:11;3.87;;;2.67;;
12484;SDS011;6307;46.804;11.580;2022-07-03T09:12:40;10.20;;;3.00;;
12484;SDS011;6307;46.804;11.580;2022-07-03T09:15:12;4.80;;;2.53;;
12484;SDS011;6307;46.804;11.580;2022-07-03T09:17:39;4.53;;;2.50;;
12484;SDS011;6307;46.804;11.580;2022-07-03T09:20:06;6.20;;;2.77;;
12484;SDS011;6307;46.804;11.580;2022-07-03T09:22:34;3.50;;;2.67;;
12484;SDS011;6307;46.804;11.580;2022-07-03T09:25:12;3.97;;;2.40;;
12484;SDS011;6307;46.804;11.580;2022-07-03T09:27:51;2.40;;;1.93;;
12484;SDS011;6307;46.804;11.580;2022-07-03T09:30:18;3.00;;;2.13;;
12484;SDS011;6307;46.804;11.580;2022-07-03T09:32:46;2.30;;;1.60;;
12484;SDS011;6307;46.804;11.580;2022-07-03T09:37:47;1.30;;;1.20;;
12484;SDS011;6307;46.804;11.580;2022-07-03T09:40:15;1.73;;;1.30;;
12484;SDS011;6307;46.804;11.580;2022-07-03T09:43:15;2.87;;;1.30;;
12484;SDS011;6307;46.804;11.580;2022-07-03T09:45:54;2.17;;;1.40;;
12484;SDS011;6307;46.804;11.580;2022-07-03T09:48:35;2.43;;;1.30;;
12484;SDS011;6307;46.804;11.580;2022-07-03T09:53:52;1.50;;;1.40;;
12484;SDS011;6307;46.804;11.580;2022-07-03T09:56:19;2.13;;;1.13;;
12484;SDS011;6307;46.804;11.580;2022-07-03T10:01:38;3.27;;;1.10;;
12484;SDS011;6307;46.804;11.580;2022-07-03T10:04:20;5.77;;;1.63;;
12484;SDS011;6307;46.804;11.580;2022-07-03T10:06:52;1.93;;;1.10;;
12484;SDS011;6307;46.804;11.580;2022-07-03T10:09:23;3.50;;;1.13;;
12484;SDS011;6307;46.804;11.580;2022-07-03T10:11:58;2.90;;;1.20;;
12484;SDS011;6307;46.804;11.580;2022-07-03T10:14:28;2.47;;;1.17;;
12484;SDS011;6307;46.804;11.580;2022-07-03T10:16:56;1.77;;;0.93;;
12484;SDS011;6307;46.804;11.580;2022-07-03T10:19:30;2.33;;;1.00;;
12484;SDS011;6307;46.804;11.580;2022-07-03T10:22:06;1.33;;;1.10;;
12484;SDS011;6307;46.804;11.580;2022-07-03T10:24:43;2.20;;;1.20;;
12484;SDS011;6307;46.804;11.580;2022-07-03T10:27:14;2.60;;;1.10;;
12484;SDS011;6307;46.804;11.580;2022-07-03T10:29:40;2.53;;;1.27;;
12484;SDS011;6307;46.804;11.580;2022-07-03T10:32:08;3.67;;;0.90;;
12484;SDS011;6307;46.804;11.580;2022-07-03T10:34:36;1.20;;;1.03;;
12484;SDS011;6307;46.804;11.580;2022-07-03T10:37:03;3.90;;;1.10;;
12484;SDS011;6307;46.804;11.580;2022-07-03T10:39:38;2.57;;;1.20;;
12484;SDS011;6307;46.804;11.580;2022-07-03T10:42:47;1.63;;;1.03;;
12484;SDS011;6307;46.804;11.580;2022-07-03T10:45:40;2.60;;;1.20;;
12484;SDS011;6307;46.804;11.580;2022-07-03T10:48:56;2.47;;;1.20;;
12484;SDS011;6307;46.804;11.580;2022-07-03T10:51:25;1.27;;;1.17;;
12484;SDS011;6307;46.804;11.580;2022-07-03T10:54:13;2.25;;;1.00;;
12484;SDS011;6307;46.804;11.580;2022-07-03T11:15:31;1.17;;;1.08;;
12484;SDS011;6307;46.804;11.580;2022-07-03T11:26:00;1.65;;;1.05;;
12484;SDS011;6307;46.804;11.580;2022-07-03T11:36:24;2.67;;;0.98;;
12484;SDS011;6307;46.804;11.580;2022-07-03T11:41:24;2.22;;;0.85;;
12484;SDS011;6307;46.804;11.580;2022-07-03T11:43:56;5.70;;;0.93;;
12484;SDS011;6307;46.804;11.580;2022-07-03T11:46:28;4.30;;;1.08;;
12484;SDS011;6307;46.804;11.580;2022-07-03T11:49:05;1.48;;;0.80;;
12484;SDS011;6307;46.804;11.580;2022-07-03T11:51:34;0.90;;;0.82;;
12484;SDS011;6307;46.804;11.580;2022-07-03T11:54:02;1.58;;;1.00;;
12484;SDS011;6307;46.804;11.580;2022-07-03T11:56:30;1.65;;;0.98;;
12484;SDS011;6307;46.804;11.580;2022-07-03T11:58:58;1.42;;;1.05;;
12484;SDS011;6307;46.804;11.580;2022-07-03T12:01:28;1.90;;;0.98;;
12484;SDS011;6307;46.804;11.580;2022-07-03T12:06:37;1.85;;;1.00;;
12484;SDS011;6307;46.804;11.580;2022-07-03T12:11:54;2.28;;;1.20;;
12484;SDS011;6307;46.804;11.580;2022-07-03T12:14:35;1.15;;;1.00;;
12484;SDS011;6307;46.804;11.580;2022-07-03T12:19:47;0.93;;;0.93;;
12484;SDS011;6307;46.804;11.580;2022-07-03T12:22:28;1.52;;;0.90;;
12484;SDS011;6307;46.804;11.580;2022-07-03T12:27:37;2.28;;;1.00;;
12484;SDS011;6307;46.804;11.580;2022-07-03T12:30:06;2.88;;;1.00;;
12484;SDS011;6307;46.804;11.580;2022-07-03T12:32:37;5.50;;;1.00;;
12484;SDS011;6307;46.804;11.580;2022-07-03T12:35:05;1.45;;;1.27;;
12484;SDS011;6307;46.804;11.580;2022-07-03T12:37:32;2.42;;;0.90;;
12484;SDS011;6307;46.804;11.580;2022-07-03T12:40:01;1.00;;;0.80;;
12484;SDS011;6307;46.804;11.580;2022-07-03T12:42:28;1.17;;;1.00;;
12484;SDS011;6307;46.804;11.580;2022-07-03T12:47:30;1.40;;;0.88;;
12484;SDS011;6307;46.804;11.580;2022-07-03T12:50:00;1.02;;;0.80;;
12484;SDS011;6307;46.804;11.580;2022-07-03T12:52:30;1.15;;;1.00;;
12484;SDS011;6307;46.804;11.580;2022-07-03T12:54:59;1.48;;;0.90;;
12484;SDS011;6307;46.804;11.580;2022-07-03T12:57:27;4.63;;;1.00;;
12484;SDS011;6307;46.804;11.580;2022-07-03T13:00:16;1.67;;;0.80;;
12484;SDS011;6307;46.804;11.580;2022-07-03T13:02:45;1.40;;;1.08;;
12484;SDS011;6307;46.804;11.580;2022-07-03T13:07:40;1.10;;;0.77;;
12484;SDS011;6307;46.804;11.580;2022-07-03T13:10:08;0.98;;;0.80;;
12484;SDS011;6307;46.804;11.580;2022-07-03T13:12:44;1.35;;;0.93;;
12484;SDS011;6307;46.804;11.580;2022-07-03T13:15:24;0.85;;;0.85;;
12484;SDS011;6307;46.804;11.580;2022-07-03T13:20:40;2.50;;;1.42;;
12484;SDS011;6307;46.804;11.580;2022-07-03T13:23:05;1.77;;;1.17;;
12484;SDS011;6307;46.804;11.580;2022-07-03T13:25:33;2.58;;;1.30;;
12484;SDS011;6307;46.804;11.580;2022-07-03T13:30:34;3.33;;;1.50;;
12484;SDS011;6307;46.804;11.580;2022-07-03T13:33:01;2.87;;;1.40;;
12484;SDS011;6307;46.804;11.580;2022-07-03T13:35:28;2.83;;;1.40;;
12484;SDS011;6307;46.804;11.580;2022-07-03T13:37:55;3.23;;;1.30;;
12484;SDS011;6307;46.804;11.580;2022-07-03T13:40:21;2.80;;;1.10;;
12484;SDS011;6307;46.804;11.580;2022-07-03T13:42:48;2.30;;;1.40;;
12484;SDS011;6307;46.804;11.580;2022-07-03T13:45:14;2.33;;;1.27;;
12484;SDS011;6307;46.804;11.580;2022-07-03T13:47:41;3.17;;;1.37;;
12484;SDS011;6307;46.804;11.580;2022-07-03T13:50:07;2.37;;;1.23;;
12484;SDS011;6307;46.804;11.580;2022-07-03T13:52:35;1.77;;;1.40;;
12484;SDS011;6307;46.804;11.580;2022-07-03T13:55:02;1.40;;;1.30;;
12484;SDS011;6307;46.804;11.580;2022-07-03T13:57:30;2.40;;;1.20;;
12484;SDS011;6307;46.804;11.580;2022-07-03T13:59:58;1.33;;;1.23;;
12484;SDS011;6307;46.804;11.580;2022-07-03T14:02:24;1.83;;;1.30;;
12484;SDS011;6307;46.804;11.580;2022-07-03T14:04:51;2.93;;;1.17;;
12484;SDS011;6307;46.804;11.580;2022-07-03T14:07:17;1.63;;;1.37;;
12484;SDS011;6307;46.804;11.580;2022-07-03T14:09:43;1.30;;;1.20;;
12484;SDS011;6307;46.804;11.580;2022-07-03T14:12:09;1.10;;;1.00;;
12484;SDS011;6307;46.804;11.580;2022-07-03T14:14:36;2.13;;;1.20;;
12484;SDS011;6307;46.804;11.580;2022-07-03T14:17:02;1.97;;;1.30;;
12484;SDS011;6307;46.804;11.580;2022-07-03T14:19:28;1.47;;;1.03;;
12484;SDS011;6307;46.804;11.580;2022-07-03T14:21:55;1.93;;;1.30;;
12484;SDS011;6307;46.804;11.580;2022-07-03T14:24:21;1.30;;;1.20;;
12484;SDS011;6307;46.804;11.580;2022-07-03T14:26:47;2.90;;;1.20;;
12484;SDS011;6307;46.804;11.580;2022-07-03T14:29:32;2.13;;;1.13;;
12484;SDS011;6307;46.804;11.580;2022-07-03T14:32:16;1.43;;;1.20;;
12484;SDS011;6307;46.804;11.580;2022-07-03T14:34:54;1.20;;;1.10;;
12484;SDS011;6307;46.804;11.580;2022-07-03T14:37:22;1.27;;;1.07;;
12484;SDS011;6307;46.804;11.580;2022-07-03T14:39:48;1.63;;;1.37;;
12484;SDS011;6307;46.804;11.580;2022-07-03T14:42:16;1.17;;;1.07;;
12484;SDS011;6307;46.804;11.580;2022-07-03T14:44:43;2.03;;;1.30;;
12484;SDS011;6307;46.804;11.580;2022-07-03T14:47:10;2.10;;;1.20;;
12484;SDS011;6307;46.804;11.580;2022-07-03T14:49:36;1.80;;;1.13;;
12484;SDS011;6307;46.804;11.580;2022-07-03T14:52:04;1.73;;;1.00;;
12484;SDS011;6307;46.804;11.580;2022-07-03T14:54:32;2.07;;;0.97;;
12484;SDS011;6307;46.804;11.580;2022-07-03T14:57:04;1.40;;;1.20;;
12484;SDS011;6307;46.804;11.580;2022-07-03T15:02:48;1.30;;;1.20;;
12484;SDS011;6307;46.804;11.580;2022-07-03T15:05:23;1.37;;;1.27;;
12484;SDS011;6307;46.804;11.580;2022-07-03T15:10:35;1.60;;;1.40;;
12484;SDS011;6307;46.804;11.580;2022-07-03T15:13:04;1.40;;;1.30;;
12484;SDS011;6307;46.804;11.580;2022-07-03T15:15:32;1.63;;;1.50;;
12484;SDS011;6307;46.804;11.580;2022-07-03T15:17:59;3.07;;;1.50;;
12484;SDS011;6307;46.804;11.580;2022-07-03T15:20:35;1.67;;;1.43;;
12484;SDS011;6307;46.804;11.580;2022-07-03T15:23:04;1.97;;;1.10;;
12484;SDS011;6307;46.804;11.580;2022-07-03T15:25:32;1.73;;;1.20;;
12484;SDS011;6307;46.804;11.580;2022-07-03T15:28:01;2.50;;;1.30;;
12484;SDS011;6307;46.804;11.580;2022-07-03T15:30:28;2.40;;;1.63;;
12484;SDS011;6307;46.804;11.580;2022-07-03T15:32:55;1.57;;;1.43;;
12484;SDS011;6307;46.804;11.580;2022-07-03T15:35:23;1.73;;;1.40;;
12484;SDS011;6307;46.804;11.580;2022-07-03T15:37:54;2.50;;;1.40;;
12484;SDS011;6307;46.804;11.580;2022-07-03T15:40:38;1.70;;;1.60;;
12484;SDS011;6307;46.804;11.580;2022-07-03T15:51:24;3.37;;;1.30;;
12484;SDS011;6307;46.804;11.580;2022-07-03T15:53:57;1.20;;;1.10;;
12484;SDS011;6307;46.804;11.580;2022-07-03T15:56:28;2.43;;;1.20;;
12484;SDS011;6307;46.804;11.580;2022-07-03T15:59:04;3.13;;;1.20;;
12484;SDS011;6307;46.804;11.580;2022-07-03T16:01:43;1.50;;;1.40;;
12484;SDS011;6307;46.804;11.580;2022-07-03T16:07:38;1.60;;;1.27;;
12484;SDS011;6307;46.804;11.580;2022-07-03T16:10:08;1.67;;;1.27;;
12484;SDS011;6307;46.804;11.580;2022-07-03T16:12:36;1.30;;;1.20;;
12484;SDS011;6307;46.804;11.580;2022-07-03T16:15:04;2.03;;;1.40;;
12484;SDS011;6307;46.804;11.580;2022-07-03T16:17:32;4.17;;;1.67;;
12484;SDS011;6307;46.804;11.580;2022-07-03T16:20:00;1.37;;;1.27;;
12484;SDS011;6307;46.804;11.580;2022-07-03T16:22:30;1.40;;;1.30;;
12484;SDS011;6307;46.804;11.580;2022-07-03T16:25:01;2.40;;;1.10;;
12484;SDS011;6307;46.804;11.580;2022-07-03T16:27:30;1.20;;;1.10;;
12484;SDS011;6307;46.804;11.580;2022-07-03T16:29:57;1.70;;;1.07;;
12484;SDS011;6307;46.804;11.580;2022-07-03T16:32:28;2.73;;;1.20;;
12484;SDS011;6307;46.804;11.580;2022-07-03T16:35:03;1.30;;;1.20;;
12484;SDS011;6307;46.804;11.580;2022-07-03T16:37:56;1.70;;;1.10;;
12484;SDS011;6307;46.804;11.580;2022-07-03T16:40:29;3.50;;;1.40;;
12484;SDS011;6307;46.804;11.580;2022-07-03T16:43:06;1.37;;;1.13;;
12484;SDS011;6307;46.804;11.580;2022-07-03T16:45:39;1.33;;;1.23;;
12484;SDS011;6307;46.804;11.580;2022-07-03T16:48:08;1.37;;;1.20;;
12484;SDS011;6307;46.804;11.580;2022-07-03T16:50:55;1.73;;;1.30;;
12484;SDS011;6307;46.804;11.580;2022-07-03T16:53:25;1.60;;;1.20;;
12484;SDS011;6307;46.804;11.580;2022-07-03T16:55:51;2.67;;;1.10;;
12484;SDS011;6307;46.804;11.580;2022-07-03T16:58:18;2.97;;;1.20;;
12484;SDS011;6307;46.804;11.580;2022-07-03T17:00:47;3.43;;;1.47;;
12484;SDS011;6307;46.804;11.580;2022-07-03T17:03:13;4.70;;;1.37;;
12484;SDS011;6307;46.804;11.580;2022-07-03T17:05:45;1.97;;;1.20;;
12484;SDS011;6307;46.804;11.580;2022-07-03T17:08:16;1.80;;;1.20;;
12484;SDS011;6307;46.804;11.580;2022-07-03T17:10:44;1.63;;;1.40;;
12484;SDS011;6307;46.804;11.580;2022-07-03T17:13:11;1.60;;;1.00;;